Portada
METAR-TAF:

METAR-TAF

Aeropuertos :

Aeropuerto de Ekaterimburgo-Koltsovo

Ekaterimburgo, Rusia

latitud: 56-50N, longitud: 060-38E, altitud: 237 m

Observación

El informe se hizo hace 15 minutos, a las 19:00 UTC
Viento 8 kt del oeste
Temperatura 13°C
Humedad 100%
Presión 1003 hPa
Visibilidad: 8000 m
Escasas nubes a una altura de 4200 ft

METAR: USSS 181900Z 28004MPS 8000 FEW042 13/13 Q1003 R26R/290037 R26L/290050 NOSIG RMK QFE732/0976

Hora: 00:15 (19:15 UTC)

Pronóstico

El informe se hizo hace 2 horas y 21 minutos, a las 16:54 UTC
Pronóstico válido del 18 a las 18 UTC al 19 a las 18 UTC
Viento 8 kt del oeste-noroeste
Visibilidad: 5000 m
Nubes dispersas a una altura de 700 ft
Cielo nuboso a una altura de 2000 ft, Cumulonimbus.
neblina
Temporalmente
del 18 a las 18 UTC al 19 a las 04 UTC
chaparrones de lluvia

TAF: USSS 181654Z 1818/1918 30004MPS 5000 BR SCT007 BKN020CB TEMPO 1818/1904 -SHRA

Observaciones y pronósticos meteorológicos de más de 4000 aeropuertos (mensajes METAR y TAF).

Los puntos amarillos y rojos representan las estaciones disponibles.

Ponga el ratón en el punto deseado para ver el nombre de la estación.

Haga clic para ver las observaciones y los pronósticos meteorológicos.

Para cambiar el mapa : haga clic en los botones verdes con una cruz de color negro para hacer un zoom, en el botón verde con un guión para alejar o en las flechas verdes para mapas adyacentes.


METAR-TAF: